createdAt,value
2018-08-18T00:02:14.424Z,15.76
2018-08-18T00:04:42.421Z,15.78
2018-08-18T00:07:10.429Z,15.75
2018-08-18T00:09:38.431Z,15.76
2018-08-18T00:12:06.656Z,15.75
2018-08-18T00:14:34.718Z,15.73
2018-08-18T00:17:02.717Z,15.73
2018-08-18T00:19:30.713Z,15.70
2018-08-18T00:21:58.704Z,15.70
2018-08-18T00:24:26.793Z,15.65
2018-08-18T00:26:54.802Z,15.53
2018-08-18T00:29:22.796Z,15.53
2018-08-18T00:31:50.858Z,15.53
2018-08-18T00:34:18.911Z,15.52
2018-08-18T00:36:46.849Z,15.52
2018-08-18T00:39:14.840Z,15.48
2018-08-18T00:41:42.847Z,15.45
2018-08-18T00:44:11.505Z,15.42
2018-08-18T00:46:39.554Z,15.42
2018-08-18T00:49:07.678Z,15.35
2018-08-18T00:51:36.939Z,15.33
2018-08-18T00:54:06.537Z,15.29
2018-08-18T00:56:36.990Z,15.28
2018-08-18T00:59:04.994Z,15.28
2018-08-18T01:01:32.963Z,15.27
2018-08-18T01:04:02.020Z,15.27
2018-08-18T01:06:32.029Z,15.17
2018-08-18T01:09:00.843Z,15.14
2018-08-18T01:11:29.257Z,15.15
2018-08-18T01:13:58.260Z,15.11
2018-08-18T01:16:26.225Z,15.11
2018-08-18T01:18:54.956Z,15.12
2018-08-18T01:21:24.268Z,15.08
2018-08-18T01:23:52.229Z,15.04
2018-08-18T01:26:20.281Z,15.02
2018-08-18T01:28:48.941Z,14.99
2018-08-18T01:31:21.165Z,14.97
2018-08-18T01:33:49.156Z,14.96
2018-08-18T01:36:17.157Z,14.95
2018-08-18T01:38:45.168Z,14.84
2018-08-18T01:41:19.712Z,14.83
2018-08-18T01:43:49.457Z,14.85
2018-08-18T01:46:18.533Z,14.85
2018-08-18T01:48:48.549Z,14.77
2018-08-18T01:51:18.661Z,14.71
2018-08-18T01:53:47.632Z,14.75
2018-08-18T01:56:17.274Z,14.61
2018-08-18T01:58:45.274Z,14.53
2018-08-18T02:01:13.303Z,14.42
2018-08-18T02:03:41.300Z,14.42
2018-08-18T02:06:09.272Z,14.37
2018-08-18T02:08:56.005Z,14.45
2018-08-18T02:11:25.977Z,14.44
2018-08-18T02:13:55.397Z,14.44
2018-08-18T02:16:24.986Z,14.46
2018-08-18T02:18:52.989Z,14.48
2018-08-18T02:21:29.536Z,14.46
2018-08-18T02:23:58.632Z,14.45
2018-08-18T02:26:27.853Z,14.45
2018-08-18T02:28:55.858Z,14.43
2018-08-18T02:31:24.072Z,14.46
2018-08-18T02:33:52.156Z,14.36
2018-08-18T02:36:20.157Z,14.36
2018-08-18T02:38:55.568Z,14.32
2018-08-18T02:41:24.641Z,14.36
2018-08-18T02:43:52.828Z,14.38
2018-08-18T02:46:28.826Z,14.39
2018-08-18T02:48:56.962Z,14.39
2018-08-18T02:51:24.966Z,14.40
2018-08-18T02:53:52.945Z,14.41
2018-08-18T02:56:21.548Z,14.18
2018-08-18T02:58:56.657Z,13.98
2018-08-18T03:01:28.824Z,13.89
2018-08-18T03:03:57.252Z,13.70
2018-08-18T03:06:25.306Z,13.76
2018-08-18T03:08:53.294Z,13.77
2018-08-18T03:11:21.320Z,13.63
2018-08-18T03:13:49.344Z,13.63
2018-08-18T03:16:17.373Z,13.70
2018-08-18T03:18:47.222Z,13.76
2018-08-18T03:21:15.504Z,13.84
2018-08-18T03:23:55.144Z,13.87
2018-08-18T03:26:31.514Z,13.78
2018-08-18T03:28:59.572Z,13.65
2018-08-18T03:31:27.538Z,13.64
2018-08-18T03:33:55.536Z,13.60
2018-08-18T03:36:31.481Z,13.67
2018-08-18T03:38:59.791Z,13.63
2018-08-18T03:41:28.845Z,13.55
2018-08-18T03:43:57.329Z,13.49
2018-08-18T03:46:25.321Z,13.55
2018-08-18T03:48:53.629Z,13.55
2018-08-18T03:51:28.250Z,13.58
2018-08-18T03:53:56.425Z,13.57
2018-08-18T03:56:24.460Z,13.62
2018-08-18T03:58:54.408Z,13.69
2018-08-18T04:01:37.741Z,13.60
2018-08-18T04:04:06.980Z,13.62
2018-08-18T04:06:36.080Z,13.64
2018-08-18T04:09:05.952Z,13.63
2018-08-18T04:11:33.897Z,13.58
2018-08-18T04:14:01.885Z,13.62
2018-08-18T04:16:29.922Z,13.66
2018-08-18T04:19:01.416Z,13.61
2018-08-18T04:21:31.421Z,13.56
2018-08-18T04:23:59.414Z,13.50
2018-08-18T04:26:27.704Z,13.27
2018-08-18T04:28:55.994Z,13.21
2018-08-18T04:31:28.388Z,13.25
2018-08-18T04:33:56.409Z,13.32
2018-08-18T04:36:24.423Z,13.35
2018-08-18T04:38:52.413Z,13.48
2018-08-18T04:41:21.180Z,13.57
2018-08-18T04:43:49.281Z,13.65
2018-08-18T04:46:17.235Z,13.70
2018-08-18T04:48:45.228Z,13.69
2018-08-18T04:51:13.345Z,13.87
2018-08-18T04:53:41.349Z,13.95
2018-08-18T04:56:09.353Z,14.12
2018-08-18T04:58:37.336Z,14.22
2018-08-18T05:01:05.365Z,14.42
2018-08-18T05:03:33.416Z,14.57
2018-08-18T05:06:01.367Z,14.74
2018-08-18T05:08:29.364Z,14.94
2018-08-18T05:10:57.424Z,15.05
2018-08-18T05:13:25.416Z,15.42
2018-08-18T05:15:53.427Z,16.53
2018-08-18T05:18:21.485Z,17.83
2018-08-18T05:20:49.483Z,19.20
2018-08-18T05:23:23.490Z,20.55
2018-08-18T05:25:52.353Z,21.88
2018-08-18T05:28:20.598Z,22.98
2018-08-18T05:30:51.500Z,24.00
2018-08-18T05:33:19.509Z,24.96
2018-08-18T05:35:47.556Z,25.87
2018-08-18T05:38:15.624Z,26.84
2018-08-18T05:40:43.677Z,27.59
2018-08-18T05:43:11.713Z,28.14
2018-08-18T05:45:39.727Z,28.83
2018-08-18T05:48:07.748Z,29.56
2018-08-18T05:50:35.808Z,30.08
2018-08-18T05:53:16.120Z,30.62
2018-08-18T05:55:44.130Z,31.20
2018-08-18T05:58:12.468Z,31.60
2018-08-18T06:00:40.773Z,31.83
2018-08-18T06:03:09.304Z,32.53
2018-08-18T06:05:37.478Z,33.08
2018-08-18T06:08:05.982Z,33.81
2018-08-18T06:10:33.993Z,34.03
2018-08-18T06:13:07.525Z,33.98
2018-08-18T06:15:35.524Z,34.53
2018-08-18T06:18:03.605Z,34.72
2018-08-18T06:20:31.590Z,35.09
2018-08-18T06:22:59.576Z,34.69
2018-08-18T06:25:27.697Z,35.11
2018-08-18T06:27:55.718Z,35.55
2018-08-18T06:30:23.743Z,35.73
2018-08-18T06:32:51.791Z,35.83
2018-08-18T06:35:20.939Z,36.28
2018-08-18T06:37:54.032Z,36.97
2018-08-18T06:40:22.129Z,37.09
2018-08-18T06:42:50.141Z,37.00
2018-08-18T06:45:19.436Z,37.55
2018-08-18T06:47:47.439Z,36.52
2018-08-18T06:50:16.524Z,37.39
2018-08-18T06:52:45.274Z,38.07
2018-08-18T06:55:15.180Z,38.80
2018-08-18T06:57:50.247Z,39.58
2018-08-18T07:00:20.296Z,39.91
2018-08-18T07:02:48.296Z,39.54
2018-08-18T07:05:17.319Z,39.25
2018-08-18T07:07:46.008Z,39.52
2018-08-18T07:10:28.959Z,39.38
2018-08-18T07:13:01.808Z,39.81
2018-08-18T07:15:31.469Z,39.32
2018-08-18T07:17:59.472Z,39.54
2018-08-18T07:20:27.448Z,38.93
2018-08-18T07:22:55.763Z,38.58
2018-08-18T07:25:23.908Z,38.04
2018-08-18T07:27:58.193Z,38.28
2018-08-18T07:30:26.696Z,38.69
2018-08-18T07:32:54.669Z,37.78
2018-08-18T07:35:22.741Z,37.31
2018-08-18T07:37:50.730Z,37.27
2018-08-18T07:40:21.844Z,37.61
2018-08-18T07:42:54.017Z,37.63
2018-08-18T07:45:22.024Z,37.96
2018-08-18T07:47:50.116Z,38.04
2018-08-18T07:50:18.140Z,37.16
2018-08-18T07:52:46.105Z,37.00
2018-08-18T07:55:14.152Z,37.14
2018-08-18T07:57:46.323Z,37.65
2018-08-18T08:00:14.334Z,37.98
2018-08-18T08:02:42.365Z,37.72
2018-08-18T08:05:10.425Z,36.96
2018-08-18T08:07:39.282Z,37.98
2018-08-18T08:10:07.333Z,38.15
2018-08-18T08:12:35.454Z,37.53
2018-08-18T08:15:03.353Z,36.84
2018-08-18T08:17:31.333Z,37.19
2018-08-18T08:19:59.340Z,37.76
2018-08-18T08:22:27.409Z,37.68
2018-08-18T08:24:56.289Z,37.70
2018-08-18T08:27:24.286Z,37.65
2018-08-18T08:29:52.320Z,37.61
2018-08-18T08:32:20.312Z,37.23
2018-08-18T08:34:48.304Z,37.76
2018-08-18T08:37:17.062Z,37.35
2018-08-18T08:39:46.081Z,37.25
2018-08-18T08:42:14.076Z,36.09
2018-08-18T08:44:43.129Z,36.09
2018-08-18T08:47:13.753Z,35.87
2018-08-18T08:49:41.772Z,35.16
2018-08-18T08:52:09.772Z,32.97
2018-08-18T08:54:38.915Z,32.69
2018-08-18T08:57:08.303Z,32.84
2018-08-18T08:59:37.404Z,32.71
2018-08-18T09:02:06.148Z,32.55
2018-08-18T09:04:34.788Z,32.47
2018-08-18T09:07:04.447Z,32.55
2018-08-18T09:09:32.520Z,32.27
2018-08-18T09:12:00.555Z,31.84
2018-08-18T09:14:28.550Z,31.34
2018-08-18T09:16:56.585Z,31.09
2018-08-18T09:19:24.605Z,30.48
2018-08-18T09:21:53.705Z,30.55
2018-08-18T09:24:23.709Z,30.27
2018-08-18T09:26:53.677Z,30.33
2018-08-18T09:29:22.049Z,29.70
2018-08-18T09:31:50.172Z,29.10
2018-08-18T09:34:18.208Z,28.61
2018-08-18T09:39:13.220Z,29.08
2018-08-18T09:41:41.264Z,28.76
2018-08-18T09:44:14.675Z,28.87
2018-08-18T09:46:43.449Z,29.22
2018-08-18T09:49:11.473Z,29.30
2018-08-18T09:51:39.517Z,29.07
2018-08-18T09:54:07.512Z,28.97
2018-08-18T09:56:35.525Z,28.62
2018-08-18T09:59:03.520Z,28.76
2018-08-18T10:01:31.611Z,28.07
2018-08-18T10:03:59.617Z,28.25
2018-08-18T10:06:27.663Z,28.00
2018-08-18T10:08:55.820Z,28.38
2018-08-18T10:11:23.903Z,28.45
2018-08-18T10:13:51.918Z,28.18
2018-08-18T10:16:19.966Z,28.09
2018-08-18T10:18:48.448Z,28.53
2018-08-18T10:21:16.492Z,28.28
2018-08-18T10:23:44.597Z,28.87
2018-08-18T10:26:12.782Z,28.57
2018-08-18T10:28:41.181Z,28.56
2018-08-18T10:31:09.386Z,28.74
2018-08-18T10:33:37.440Z,29.25
2018-08-18T10:36:05.468Z,29.10
2018-08-18T10:38:33.493Z,29.32
2018-08-18T10:41:03.560Z,29.42
2018-08-18T10:43:32.059Z,28.65
2018-08-18T10:46:00.132Z,28.43
2018-08-18T10:48:28.137Z,28.46
2018-08-18T10:51:38.870Z,28.11
2018-08-18T10:54:06.815Z,27.95
2018-08-18T10:56:34.830Z,28.18
2018-08-18T10:59:20.272Z,28.47
2018-08-18T11:02:00.437Z,28.69
2018-08-18T11:04:29.539Z,28.74
2018-08-18T11:06:57.540Z,28.78
2018-08-18T11:09:25.545Z,28.69
2018-08-18T11:11:53.886Z,28.80
2018-08-18T11:14:22.016Z,28.71
2018-08-18T11:16:50.033Z,28.45
2018-08-18T11:19:18.078Z,28.77
2018-08-18T11:21:46.098Z,28.63
2018-08-18T11:24:14.105Z,28.69
2018-08-18T11:26:42.125Z,28.63
2018-08-18T11:29:17.222Z,28.43
2018-08-18T11:31:46.529Z,28.52
2018-08-18T11:34:16.670Z,28.16
2018-08-18T11:36:59.233Z,28.47
2018-08-18T11:39:28.486Z,28.60
2018-08-18T11:41:57.243Z,28.58
2018-08-18T11:44:25.245Z,28.40
2018-08-18T11:46:53.337Z,28.10
2018-08-18T11:49:21.568Z,27.88
2018-08-18T11:51:49.733Z,28.29
2018-08-18T11:54:17.812Z,28.40
2018-08-18T11:56:51.152Z,28.16
2018-08-18T11:59:19.161Z,28.40
2018-08-18T12:01:49.242Z,28.45
2018-08-18T12:04:17.661Z,28.39
2018-08-18T12:06:51.024Z,28.71
2018-08-18T12:09:19.045Z,28.56
2018-08-18T12:11:47.968Z,28.28
2018-08-18T12:14:16.276Z,28.29
2018-08-18T12:16:44.267Z,28.28
2018-08-18T12:19:12.293Z,28.52
2018-08-18T12:21:44.022Z,28.87
2018-08-18T12:24:17.692Z,29.12
2018-08-18T12:26:57.096Z,29.12
2018-08-18T12:29:25.132Z,29.22
2018-08-18T12:31:53.119Z,29.54
2018-08-18T12:34:21.122Z,29.60
2018-08-18T12:36:49.193Z,29.59
2018-08-18T12:39:17.108Z,29.48
2018-08-18T12:41:45.116Z,28.99
2018-08-18T12:44:14.250Z,28.50
2018-08-18T12:46:47.741Z,28.71
2018-08-18T12:49:15.773Z,28.76
2018-08-18T12:51:44.700Z,28.61
2018-08-18T12:54:12.708Z,28.81
2018-08-18T12:56:40.712Z,28.71
2018-08-18T12:59:08.732Z,28.73
2018-08-18T13:01:46.328Z,28.94
2018-08-18T13:04:15.686Z,29.49
2018-08-18T13:06:51.646Z,29.62
2018-08-18T13:09:21.000Z,29.54
2018-08-18T13:11:50.201Z,29.01
2018-08-18T13:14:20.554Z,28.84
2018-08-18T13:16:48.521Z,28.74
2018-08-18T13:19:18.449Z,28.82
2018-08-18T13:21:46.447Z,29.22
2018-08-18T13:24:14.539Z,29.41
2018-08-18T13:26:42.457Z,29.45
2018-08-18T13:29:10.463Z,29.51
2018-08-18T13:31:41.529Z,29.38
2018-08-18T13:34:11.356Z,29.33
2018-08-18T13:36:40.533Z,29.58
2018-08-18T13:39:12.084Z,29.56
2018-08-18T13:41:40.260Z,29.11
2018-08-18T13:44:08.289Z,29.00
2018-08-18T13:46:50.169Z,29.04
2018-08-18T13:49:23.175Z,29.11
2018-08-18T13:51:51.281Z,29.09
2018-08-18T13:54:19.458Z,28.89
2018-08-18T13:56:47.484Z,29.00
2018-08-18T13:59:24.432Z,29.33
2018-08-18T14:01:52.489Z,29.28
2018-08-18T14:04:26.046Z,29.40
2018-08-18T14:06:55.208Z,29.39
2018-08-18T14:09:23.212Z,29.67
2018-08-18T14:11:55.288Z,29.65
2018-08-18T14:14:23.360Z,29.57
2018-08-18T14:16:51.376Z,29.27
2018-08-18T14:19:21.209Z,29.51
2018-08-18T14:21:52.973Z,29.64
2018-08-18T14:24:25.150Z,29.29
2018-08-18T14:26:58.596Z,29.52
2018-08-18T14:29:26.678Z,29.58
2018-08-18T14:31:54.759Z,29.44
2018-08-18T14:34:22.889Z,29.45
2018-08-18T14:36:51.396Z,29.36
2018-08-18T14:39:31.588Z,29.63
2018-08-18T14:41:59.764Z,29.49
2018-08-18T14:44:27.911Z,29.36
2018-08-18T14:46:56.639Z,29.41
2018-08-18T14:49:24.665Z,29.68
2018-08-18T14:51:52.728Z,29.66
2018-08-18T14:54:24.920Z,29.91
2018-08-18T14:56:52.921Z,29.36
2018-08-18T14:59:25.466Z,29.52
2018-08-18T15:01:53.525Z,29.40
2018-08-18T15:04:21.584Z,29.14
2018-08-18T15:06:49.573Z,29.24
2018-08-18T15:09:30.989Z,29.17
2018-08-18T15:12:00.145Z,29.24
2018-08-18T15:14:28.261Z,29.40
2018-08-18T15:16:56.508Z,29.45
2018-08-18T15:19:24.573Z,29.01
2018-08-18T15:21:54.043Z,29.18
2018-08-18T15:24:22.343Z,29.12
2018-08-18T15:26:51.752Z,29.27
2018-08-18T15:29:19.761Z,29.38
2018-08-18T15:31:48.411Z,29.39
2018-08-18T15:34:16.517Z,29.03
2018-08-18T15:36:44.550Z,28.40
2018-08-18T15:39:12.698Z,28.57
2018-08-18T15:41:40.622Z,28.28
2018-08-18T15:44:10.104Z,28.08
2018-08-18T15:46:38.129Z,28.07
2018-08-18T15:49:06.153Z,27.98
2018-08-18T15:51:34.164Z,28.03
2018-08-18T15:54:03.317Z,28.12
2018-08-18T15:56:32.613Z,28.02
2018-08-18T15:59:01.300Z,27.81
2018-08-18T16:01:30.690Z,27.68
2018-08-18T16:04:00.541Z,27.92
2018-08-18T16:06:28.577Z,27.96
2018-08-18T16:08:56.743Z,27.78
2018-08-18T16:11:24.889Z,27.77
2018-08-18T16:13:53.032Z,27.83
2018-08-18T16:16:20.940Z,28.03
2018-08-18T16:18:49.286Z,28.30
2018-08-18T16:21:22.245Z,28.22
2018-08-18T16:23:50.400Z,28.34
2018-08-18T16:26:18.345Z,28.26
2018-08-18T16:28:46.413Z,28.31
2018-08-18T16:31:14.556Z,28.34
2018-08-18T16:33:42.899Z,27.95
2018-08-18T16:36:10.894Z,27.73
2018-08-18T16:38:38.901Z,27.71
2018-08-18T16:41:06.916Z,27.53
2018-08-18T16:43:36.262Z,27.35
2018-08-18T16:46:22.094Z,27.38
2018-08-18T16:48:50.799Z,27.36
2018-08-18T16:51:18.854Z,27.35
2018-08-18T16:53:47.213Z,27.25
2018-08-18T16:56:26.468Z,27.22
2018-08-18T16:58:56.592Z,27.16
2018-08-18T17:01:24.865Z,27.22
2018-08-18T17:03:53.044Z,27.25
2018-08-18T17:06:21.032Z,27.36
2018-08-18T17:08:49.040Z,27.36
2018-08-18T17:11:17.058Z,27.37
2018-08-18T17:13:45.063Z,27.21
2018-08-18T17:16:13.073Z,27.04
2018-08-18T17:18:41.100Z,26.85
2018-08-18T17:21:09.237Z,26.67
2018-08-18T17:23:38.409Z,26.56
2018-08-18T17:26:06.559Z,26.47
2018-08-18T17:28:34.997Z,26.42
2018-08-18T17:31:04.189Z,26.43
2018-08-18T17:33:32.684Z,26.32
2018-08-18T17:36:00.720Z,26.07
2018-08-18T17:38:28.773Z,26.11
2018-08-18T17:40:56.799Z,26.20
2018-08-18T17:43:24.816Z,26.34
2018-08-18T17:45:53.864Z,26.33
2018-08-18T17:48:22.877Z,26.32
2018-08-18T17:50:51.121Z,26.14
2018-08-18T17:53:19.224Z,25.97
2018-08-18T17:55:55.583Z,26.04
2018-08-18T17:58:24.089Z,26.06
2018-08-18T18:00:52.080Z,26.14
2018-08-18T18:03:20.076Z,26.19
2018-08-18T18:05:48.081Z,26.14
2018-08-18T18:08:16.101Z,25.83
2018-08-18T18:10:44.102Z,25.84
2018-08-18T18:13:17.877Z,25.99
2018-08-18T18:15:47.268Z,26.00
2018-08-18T18:18:17.397Z,25.94
2018-08-18T18:20:49.500Z,25.82
2018-08-18T18:23:18.210Z,25.81
2018-08-18T18:25:46.218Z,25.82
2018-08-18T18:28:14.300Z,25.84
2018-08-18T18:30:42.288Z,25.88
2018-08-18T18:33:10.968Z,25.93
2018-08-18T18:35:39.041Z,25.92
2018-08-18T18:38:07.119Z,25.87
2018-08-18T18:40:36.725Z,25.79
2018-08-18T18:43:04.824Z,25.69
2018-08-18T18:45:32.836Z,25.62
2018-08-18T18:48:00.865Z,25.57
2018-08-18T18:50:28.921Z,25.59
2018-08-18T18:52:56.924Z,25.51
2018-08-18T18:55:24.944Z,25.39
2018-08-18T18:58:05.541Z,25.34
2018-08-18T19:00:35.003Z,25.26
2018-08-18T19:03:03.364Z,25.19
2018-08-18T19:05:32.100Z,25.15
2018-08-18T19:08:10.221Z,25.03
2018-08-18T19:10:38.242Z,24.93
2018-08-18T19:13:06.621Z,24.91
2018-08-18T19:15:34.620Z,24.86
2018-08-18T19:18:02.704Z,24.81
2018-08-18T19:20:31.181Z,24.56
2018-08-18T19:23:21.880Z,24.38
2018-08-18T19:25:51.122Z,24.23
2018-08-18T19:28:20.343Z,24.17
2018-08-18T19:30:48.355Z,24.13
2018-08-18T19:33:17.001Z,23.84
2018-08-18T19:35:50.029Z,23.68
2018-08-18T19:38:19.120Z,23.77
2018-08-18T19:40:48.335Z,23.80
2018-08-18T19:43:20.389Z,23.78
2018-08-18T19:45:48.644Z,23.77
2018-08-18T19:48:19.140Z,23.70
2018-08-18T19:50:53.252Z,23.64
2018-08-18T19:53:22.924Z,23.52
2018-08-18T19:55:51.588Z,23.48
2018-08-18T19:58:19.647Z,23.42
2018-08-18T20:00:47.735Z,23.35
2018-08-18T20:03:16.862Z,23.24
2018-08-18T20:05:44.867Z,23.16
2018-08-18T20:08:16.084Z,23.08
2018-08-18T20:10:49.661Z,23.02
2018-08-18T20:13:18.555Z,22.90
2018-08-18T20:15:48.917Z,22.82
2018-08-18T20:18:17.154Z,22.76
2018-08-18T20:20:45.196Z,22.66
2018-08-18T20:23:15.232Z,22.55
2018-08-18T20:25:43.281Z,22.41
2018-08-18T20:28:11.558Z,22.36
2018-08-18T20:30:39.584Z,22.26
2018-08-18T20:33:07.597Z,22.25
2018-08-18T20:35:35.736Z,22.07
2018-08-18T20:38:03.985Z,22.01
2018-08-18T20:40:32.100Z,21.98
2018-08-18T20:43:00.210Z,21.87
2018-08-18T20:45:36.654Z,21.82
2018-08-18T20:48:05.741Z,21.74
2018-08-18T20:50:33.808Z,21.67
2018-08-18T20:53:17.087Z,21.50
2018-08-18T20:55:56.966Z,21.35
2018-08-18T20:58:25.207Z,21.32
2018-08-18T21:00:53.254Z,21.26
2018-08-18T21:03:21.280Z,21.28
2018-08-18T21:05:49.283Z,21.25
2018-08-18T21:08:18.214Z,21.11
2018-08-18T21:10:46.320Z,21.09
2018-08-18T21:13:14.353Z,21.05
2018-08-18T21:15:42.489Z,21.01
2018-08-18T21:18:18.124Z,20.91
2018-08-18T21:20:46.203Z,20.82
2018-08-18T21:23:14.177Z,20.79
2018-08-18T21:25:44.869Z,20.80
2018-08-18T21:28:13.454Z,20.74
2018-08-18T21:30:41.508Z,20.74
2018-08-18T21:33:09.521Z,20.74
2018-08-18T21:35:38.105Z,20.75
2018-08-18T21:38:06.697Z,20.72
2018-08-18T21:40:34.785Z,20.72
2018-08-18T21:43:02.800Z,20.67
2018-08-18T21:45:36.234Z,20.65
2018-08-18T21:48:04.422Z,20.61
2018-08-18T21:50:32.473Z,20.57
2018-08-18T21:53:00.474Z,20.56
2018-08-18T21:55:29.180Z,20.52
2018-08-18T21:57:58.285Z,20.47
2018-08-18T22:00:31.588Z,20.44
2018-08-18T22:02:59.593Z,20.43
2018-08-18T22:05:30.979Z,20.35
2018-08-18T22:07:59.452Z,20.24
2018-08-18T22:10:27.606Z,20.20
2018-08-18T22:12:55.697Z,20.20
2018-08-18T22:15:23.864Z,20.17
2018-08-18T22:17:52.695Z,20.13
2018-08-18T22:20:21.856Z,20.04
2018-08-18T22:22:49.877Z,19.96
2018-08-18T22:25:17.849Z,19.86
2018-08-18T22:27:45.861Z,19.82
2018-08-18T22:30:15.264Z,19.76
2018-08-18T22:32:44.342Z,19.72
2018-08-18T22:35:12.961Z,19.73
2018-08-18T22:37:41.234Z,19.75
2018-08-18T22:40:10.320Z,19.77
2018-08-18T22:42:38.541Z,19.71
2018-08-18T22:45:18.741Z,19.68
2018-08-18T22:47:46.816Z,19.61
2018-08-18T22:50:15.511Z,19.56
2018-08-18T22:52:46.409Z,19.48
2018-08-18T22:55:14.428Z,19.42
2018-08-18T22:57:42.808Z,19.45
2018-08-18T23:00:10.806Z,19.49
2018-08-18T23:02:38.805Z,19.51
2018-08-18T23:05:06.848Z,19.52
2018-08-18T23:07:34.824Z,19.49
2018-08-18T23:10:02.811Z,19.50
2018-08-18T23:12:30.820Z,19.53
2018-08-18T23:14:58.824Z,19.48
2018-08-18T23:17:26.818Z,19.43
2018-08-18T23:19:54.815Z,19.41
2018-08-18T23:22:37.341Z,19.43
2018-08-18T23:25:05.337Z,19.39
2018-08-18T23:27:33.352Z,19.38
2018-08-18T23:30:01.357Z,19.16
2018-08-18T23:32:29.364Z,19.01
2018-08-18T23:34:58.112Z,18.98
2018-08-18T23:37:26.108Z,18.97
2018-08-18T23:39:55.577Z,19.03
2018-08-18T23:42:24.772Z,19.10
2018-08-18T23:44:52.829Z,19.08
2018-08-18T23:47:20.917Z,19.08
2018-08-18T23:49:48.929Z,19.08
2018-08-18T23:52:16.932Z,19.00
2018-08-18T23:54:44.941Z,19.00
2018-08-18T23:57:15.234Z,18.98
2018-08-18T23:59:43.336Z,18.94
